Nearby METAR Reports

 

KSJC - San Jose, California, USA
Distance from station: NE 9mi, 14km
Updated: Sun, 17-Jan-2021 10:53am CST
Few Clouds
Few Clouds
 Wind from calm
Wind: Calm
Temperature: 52°F , 11°C
Dew Point: 46°F , 8°C
Humidity: 82%
Barometer: 30.15 inHg , 1021 hPa
Clouds: Few Clouds
Visibility: 10 miles , 16 km
Cloud details: Few Clouds 8000 ft
Few Clouds 16000 ft
2021/01/17 16:53 KSJC 171653Z 00000KT 10SM FEW080 FEW160 11/08 A3015 RMK AO2 SLP209 T01110078
KNUQ - Moffett Nas/Mtn, California, USA
Distance from station: N 9mi, 14km
Updated: Sun, 17-Jan-2021 11:35am CST
Clear
Clear
 Wind from calm
Wind: Calm
Temperature: 59°F , 15°C
Dew Point: 46°F , 8°C
Humidity: 63%
Barometer: 30.16 inHg , 1021.3 hPa
Clouds: Clear
Visibility: 10 miles , 16 km
2021/01/17 17:35 KNUQ 171735Z AUTO 00000KT 10SM CLR 15/08 A3016 RMK AO2
 
KPAO - Palo Alto, California, USA
Distance from station: NNW 14mi, 23km
Updated: Sun, 17-Jan-2021 10:47am CST
Clear
Clear
 Wind from calm
Wind: Calm
Temperature: 46°F , 8°C
Dew Point: 45°F , 7°C
Humidity: 93%
Barometer: 30.15 inHg , 1021 hPa
Clouds: Clear
Visibility: 10 miles , 16 km
2021/01/17 16:47 KPAO 171647Z 00000KT 10SM SKC 08/07 A3015
KRHV - San Jose/Reid, California, USA
Distance from station: ENE 12mi, 19km
Updated: Sun, 17-Jan-2021 10:47am CST
Clear
Clear
 Wind from calm
Wind: Calm
Temperature: 52°F , 11°C
Dew Point: 46°F , 8°C
Humidity: 82%
Barometer: 30.16 inHg , 1021.3 hPa
Clouds: Clear
Visibility: 10 miles , 16 km
2021/01/17 16:47 KRHV 171647Z 00000KT 10SM SKC 11/08 A3016
 
KOAK - Oakland, California, USA
Distance from station: NNW 31mi, 50km
Updated: Sun, 17-Jan-2021 10:53am CST
Few Clouds
Few Clouds
 Wind from NW
Wind: NW 7 mph , 11 km/h
Temperature: 59°F , 15°C
Dew Point: 48°F , 9°C
Humidity: 68%
Barometer: 30.15 inHg , 1021 hPa
Clouds: Few Clouds
Visibility: 10 miles , 16 km
Cloud details: Few Clouds 30000 ft
2021/01/17 16:53 KOAK 171653Z 31006KT 10SM FEW300 15/09 A3015 RMK AO2 SLP210 T01500094
KSQL - San Carlos Airpo, California, USA
Distance from station: NW 21mi, 34km
Updated: Sun, 17-Jan-2021 11:47am CST
Clear
Clear
 Wind from calm
Wind: Calm
Temperature: 64°F , 18°C
Dew Point: 39°F , 4°C
Humidity: 40%
Barometer: 30.16 inHg , 1021.3 hPa
Clouds: Clear
Visibility: 10 miles , 16 km
2021/01/17 17:47 KSQL 171747Z 00000KT 10SM SKC 18/04 A3016
 
KSFO - San Francisco, California, USA
Distance from station: NW 30mi, 49km
Updated: Sun, 17-Jan-2021 10:56am CST
Few Clouds
Few Clouds
 Wind from SSW
Wind: SSW 3 mph , 6 km/h
Temperature: 57°F , 14°C
Dew Point: 46°F , 8°C
Humidity: 67%
Barometer: 30.15 inHg , 1021 hPa
Clouds: Few Clouds
Visibility: 10 miles , 16 km
Cloud details: Few Clouds 20000 ft
2021/01/17 16:56 KSFO 171656Z 20003KT 10SM FEW200 14/08 A3015 RMK AO2 SLP208 T01440083
KE16 - San Martin, California, USA
Distance from station: ESE 27mi, 43km
Updated: Sun, 17-Jan-2021 11:35am CST
Clear
Clear
 Wind from calm
Wind: Calm
Temperature: 52°F , 11°C
Dew Point: 46°F , 8°C
Humidity: 82%
Barometer: 30.17 inHg , 1021.7 hPa
Clouds: Clear
Visibility: 10 miles , 16 km
2021/01/17 17:35 KE16 171735Z AUTO 00000KT 10SM CLR 11/08 A3017 RMK AO2 PWINO PNO
 
KWVI - Watsonville, California, USA
Distance from station: SSE 27mi, 44km
Updated: Sun, 17-Jan-2021 10:53am CST
Clear
Clear
 Wind from calm
Wind: Calm
Temperature: 54°F , 12°C
Dew Point: 46°F , 8°C
Humidity: 77%
Barometer: 30.13 inHg , 1020.3 hPa
Clouds: Clear
Visibility: 10 miles , 16 km
2021/01/17 16:53 KWVI 171653Z AUTO 00000KT 10SM CLR 12/08 A3013 RMK AO2 SLP203 T01220078
KHAF - Half Moon Bay, California, USA
Distance from station: WNW 31mi, 50km
Updated: Sun, 17-Jan-2021 11:35am CST
Clear
Clear
 Wind from NNW
Wind: NNW 6 mph , 9 km/h
Temperature: 68°F , 20°C
Dew Point: 37°F , 3°C
Humidity: 33%
Barometer: 30.13 inHg , 1020.3 hPa
Clouds: Clear
Visibility: 10 miles , 16 km
2021/01/17 17:35 KHAF 171735Z AUTO 33005KT 10SM CLR 20/03 A3013 RMK AO2
 
KHWD - Hayward, California, USA
Distance from station: N 28mi, 44km
Updated: Sun, 17-Jan-2021 10:54am CST
Clear
Clear
 Wind from calm
Wind: Calm
Temperature: 55°F , 13°C
Dew Point: 52°F , 11°C
Humidity: 88%
Barometer: 30.14 inHg , 1020.7 hPa
Clouds: Clear
Visibility: 10 miles , 16 km
2021/01/17 16:54 KHWD 171654Z 00000KT 10SM CLR 13/11 A3014 RMK AO2 SLP217 T01280106
KLVK - Livermore, California, USA
Distance from station: NNE 31mi, 51km
Updated: Sun, 17-Jan-2021 10:53am CST
Clear
Clear
 Wind from calm
Wind: Calm
Temperature: 55°F , 13°C
Dew Point: 41°F , 5°C
Humidity: 59%
Barometer: 30.16 inHg , 1021.3 hPa
Clouds: Clear
Visibility: 10 miles , 16 km
2021/01/17 16:53 KLVK 171653Z 00000KT 10SM CLR 13/05 A3016 RMK AO2 SLP209 T01330050